Time;durP1;ratioP1;P1;durP2;ratioP2;P2;SDS_P1;SDS_P2;PMS_P1;PMS_P2;Temp;Humidity;BMP_temperature;BMP_pressure;BME280_temperature;BME280_humidity;BME280_pressure;Samples;Min_cycle;Max_cycle;Signal;HPM_P1;HPM_P2
2022/03/09 00:00:55;;;;;;;8.30;4.97;;;-0.90;96.90;;;0.08;87.53;98701.31;5021349;28;20516;-78
2022/03/09 00:03:25;;;;;;;8.00;4.63;;;-0.90;97.00;;;0.08;87.61;98695.34;5024914;28;20488;-78
2022/03/09 00:05:56;;;;;;;9.20;4.57;;;-0.90;97.00;;;0.04;88.16;98701.63;5020757;28;20495;-78
2022/03/09 00:08:27;;;;;;;10.63;4.40;;;-1.00;97.10;;;0.04;88.95;98699.88;5015610;28;20962;-78
2022/03/09 00:10:58;;;;;;;4.67;3.60;;;-1.00;97.20;;;0.04;88.88;98694.75;5016191;28;20966;-78
2022/03/09 00:13:27;;;;;;;6.60;4.17;;;-1.00;97.30;;;0.00;88.27;98694.13;5017777;28;20506;-78
2022/03/09 00:15:57;;;;;;;5.67;4.07;;;-1.00;97.00;;;0.00;88.26;98699.28;5019297;28;20501;-78
2022/03/09 00:18:29;;;;;;;8.67;3.90;;;-1.00;97.10;;;-0.01;87.89;98704.53;5014751;28;20460;-77
2022/03/09 00:20:59;;;;;;;9.20;4.80;;;-0.90;96.80;;;0.01;87.75;98707.81;5015641;28;20473;-78
2022/03/09 00:23:31;;;;;;;11.80;4.87;;;-0.80;96.70;;;-0.04;87.47;98707.31;5013270;28;21556;-78
2022/03/09 00:26:00;;;;;;;9.80;5.30;;;-0.90;96.60;;;-0.07;88.24;98717.81;5018384;28;20493;-78
2022/03/09 00:28:34;;;;;;;6.90;4.43;;;-1.00;96.50;;;-0.11;88.14;98718.94;5018022;28;20458;-78
2022/03/09 00:31:05;;;;;;;5.73;4.00;;;-1.10;97.20;;;-0.12;87.97;98720.69;5017343;28;21147;-78
2022/03/09 00:33:35;;;;;;;6.83;4.00;;;-1.10;96.60;;;-0.11;88.36;98721.50;5018258;28;20484;-78
2022/03/09 00:36:05;;;;;;;8.03;5.03;;;-1.10;96.90;;;-0.21;88.68;98726.44;5018476;28;20495;-78
2022/03/09 00:38:37;;;;;;;9.70;5.03;;;-1.20;97.30;;;-0.18;88.73;98725.41;5019387;28;20506;-78
2022/03/09 00:41:07;;;;;;;9.27;4.47;;;-1.20;97.20;;;-0.17;88.70;98721.91;5020623;28;20450;-78
2022/03/09 00:43:37;;;;;;;10.43;5.57;;;-1.20;97.10;;;-0.18;88.61;98726.25;5018319;28;20965;-78
2022/03/09 00:46:07;;;;;;;7.90;4.30;;;-1.20;96.90;;;-0.17;88.22;98727.03;5019189;28;20470;-77
2022/03/09 00:48:39;;;;;;;9.30;4.50;;;-1.10;96.90;;;-0.22;88.30;98718.84;5018430;28;20462;-78
2022/03/09 00:51:09;;;;;;;6.30;4.07;;;-1.20;97.00;;;-0.25;89.36;98724.19;5016881;28;20464;-78
2022/03/09 00:53:40;;;;;;;10.50;4.30;;;-1.30;97.40;;;-0.28;89.31;98720.09;5019687;28;20458;-78
2022/03/09 00:56:14;;;;;;;13.07;4.70;;;-1.30;97.00;;;-0.31;89.00;98719.47;5020845;28;20493;-78
2022/03/09 00:58:45;;;;;;;6.40;4.47;;;-1.20;97.00;;;-0.34;89.12;98719.66;5021681;28;20469;-78
2022/03/09 01:01:17;;;;;;;6.10;4.47;;;-1.30;97.40;;;-0.32;88.87;98723.78;5014672;28;20866;-78
2022/03/09 01:03:48;;;;;;;11.73;4.70;;;-1.30;97.10;;;-0.41;89.03;98720.97;5017180;28;20675;-78
2022/03/09 01:06:18;;;;;;;7.63;4.13;;;-1.30;97.00;;;-0.50;88.98;98730.13;5017240;28;20497;-78
2022/03/09 01:08:49;;;;;;;9.63;4.53;;;-1.40;96.90;;;-0.49;89.69;98728.38;5015851;28;20466;-78
2022/03/09 01:11:19;;;;;;;18.10;4.90;;;-1.50;97.10;;;-0.46;89.78;98735.88;5018306;28;21801;-78
2022/03/09 01:13:51;;;;;;;8.97;4.70;;;-1.40;97.40;;;-0.52;89.77;98735.34;5018698;28;20469;-78
2022/03/09 01:16:21;;;;;;;9.57;4.23;;;-1.50;97.20;;;-0.52;90.63;98731.97;5020996;28;21004;-78
2022/03/09 01:18:50;;;;;;;6.13;4.00;;;-1.60;97.50;;;-0.56;90.54;98731.38;5018944;28;20466;-78
2022/03/09 01:21:22;;;;;;;7.57;4.63;;;-1.60;97.60;;;-0.53;90.59;98733.72;5017300;28;20466;-78
2022/03/09 01:23:53;;;;;;;7.80;4.27;;;-1.60;97.50;;;-0.54;90.05;98729.50;5017052;28;20466;-78
2022/03/09 01:26:24;;;;;;;5.70;4.07;;;-1.50;97.20;;;-0.56;90.07;98731.38;5016772;28;21059;-78
2022/03/09 01:28:54;;;;;;;7.30;3.93;;;-1.50;97.30;;;-0.60;90.65;98734.22;5016851;28;20437;-78
2022/03/09 01:31:24;;;;;;;8.03;4.77;;;-1.50;97.60;;;-0.62;90.90;98736.88;5016010;28;20976;-78
2022/03/09 01:33:55;;;;;;;7.73;4.10;;;-1.60;97.30;;;-0.68;90.91;98732.16;5016020;28;20969;-78
2022/03/09 01:36:26;;;;;;;9.13;4.17;;;-1.70;97.50;;;-0.75;91.49;98720.63;5017495;28;20498;-78
2022/03/09 01:38:56;;;;;;;6.13;3.63;;;-1.80;97.70;;;-0.68;91.91;98727.03;5015633;28;20553;-78
2022/03/09 01:41:26;;;;;;;6.33;4.23;;;-1.70;97.80;;;-0.75;91.49;98725.78;5017108;28;20467;-78
2022/03/09 01:44:13;;;;;;;8.77;4.57;;;-1.80;97.70;;;-0.76;91.58;98713.84;5020733;28;20461;-78
2022/03/09 01:46:43;;;;;;;8.33;4.30;;;-1.70;97.60;;;-0.79;90.88;98721.75;5016258;28;20981;-78
2022/03/09 01:49:14;;;;;;;7.03;3.47;;;-1.50;97.30;;;-0.78;91.49;98720.84;5016910;28;20431;-78
2022/03/09 01:51:47;;;;;;;6.40;3.30;;;-1.70;97.30;;;-0.81;91.05;98731.31;5015917;28;20802;-78
2022/03/09 01:54:18;;;;;;;5.00;4.40;;;-1.70;97.40;;;-0.88;91.45;98722.34;5018799;28;20503;-78
2022/03/09 01:56:48;;;;;;;8.60;4.90;;;-1.70;97.40;;;-0.92;91.60;98727.78;5013875;28;20762;-78
2022/03/09 01:59:17;;;;;;;7.37;4.30;;;-1.80;97.60;;;-0.94;92.43;98730.47;5015001;28;20498;-78
2022/03/09 02:04:22;;;;;;;12.77;3.47;;;-1.90;97.70;;;-0.99;92.35;98724.78;4968535;28;20499;-79
2022/03/09 02:06:52;;;;;;;10.23;4.37;;;-1.90;97.70;;;-0.93;92.66;98721.00;4975151;28;20545;-79
2022/03/09 02:12:12;;;;;;;4.73;3.60;;;-1.80;97.40;;;-1.09;92.89;98714.28;4979007;28;20467;-79
2022/03/09 02:14:47;;;;;;;6.13;3.80;;;-2.00;97.70;;;-1.05;93.33;98718.31;4978553;28;20487;-79
2022/03/09 02:17:19;;;;;;;5.63;3.93;;;-2.00;97.90;;;-1.04;93.16;98724.25;4978535;28;20484;-79
2022/03/09 02:19:51;;;;;;;5.60;3.93;;;-2.00;97.70;;;-1.07;93.36;98721.88;4977815;28;20462;-79
2022/03/09 02:22:45;;;;;;;7.63;3.60;;;-2.10;98.00;;;-1.14;94.05;98724.00;4978420;28;20939;-79
2022/03/09 02:25:17;;;;;;;8.83;3.50;;;-2.20;98.10;;;-1.12;93.92;98727.31;4980426;28;20469;-79
2022/03/09 02:27:47;;;;;;;7.83;3.87;;;-2.00;98.00;;;-1.16;93.06;98722.47;4976370;28;20890;-79
2022/03/09 02:30:20;;;;;;;6.70;3.93;;;-2.00;97.80;;;-1.23;93.78;98724.59;4979657;28;20467;-79
2022/03/09 02:32:51;;;;;;;5.70;3.63;;;-2.20;97.80;;;-1.21;93.68;98734.75;4972732;28;20479;-79
2022/03/09 02:35:21;;;;;;;4.80;3.53;;;-2.10;97.80;;;-1.27;93.66;98732.59;4976114;28;20530;-78
2022/03/09 02:37:52;;;;;;;3.87;3.10;;;-2.10;98.10;;;-1.30;94.29;98727.66;4978170;28;20629;-79
2022/03/09 02:40:22;;;;;;;4.43;3.60;;;-2.20;98.00;;;-1.28;94.39;98726.63;4976477;28;20951;-79
2022/03/09 02:42:52;;;;;;;5.43;3.93;;;-2.30;97.90;;;-1.35;94.45;98724.53;4978705;28;20464;-79
2022/03/09 02:45:21;;;;;;;7.20;3.60;;;-2.30;98.20;;;-1.34;93.99;98716.75;4979927;28;21002;-79
2022/03/09 02:47:50;;;;;;;9.10;4.30;;;-2.20;98.00;;;-1.39;93.57;98718.81;4978256;28;20937;-79
2022/03/09 02:50:21;;;;;;;7.73;4.07;;;-2.20;97.90;;;-1.36;93.88;98717.78;4979976;28;20862;-79
2022/03/09 02:52:52;;;;;;;6.43;4.00;;;-2.20;97.70;;;-1.32;93.70;98714.91;4984125;28;20445;-79
2022/03/09 02:55:22;;;;;;;5.00;3.80;;;-2.20;97.80;;;-1.38;94.16;98709.34;4985037;28;20444;-79
2022/03/09 02:57:51;;;;;;;8.20;4.20;;;-2.40;97.90;;;-1.38;94.67;98712.75;4981717;28;20500;-79
2022/03/09 03:00:21;;;;;;;4.63;3.30;;;-2.40;98.30;;;-1.44;94.47;98717.44;4982894;28;20804;-79
2022/03/09 03:02:51;;;;;;;6.67;3.70;;;-2.40;98.10;;;-1.46;95.32;98714.16;4982400;28;20472;-79
2022/03/09 03:05:22;;;;;;;7.60;4.57;;;-2.50;98.30;;;-1.45;95.06;98706.34;4981481;28;21160;-79
2022/03/09 03:07:54;;;;;;;6.00;3.60;;;-2.40;98.30;;;-1.51;95.27;98714.44;4980957;28;20784;-79
2022/03/09 03:10:24;;;;;;;8.50;4.30;;;-2.50;98.20;;;-1.53;94.93;98703.47;4981651;28;20444;-80
2022/03/09 03:12:54;;;;;;;12.27;4.70;;;-2.40;98.10;;;-1.58;95.28;98708.03;4984182;28;20780;-79
2022/03/09 03:15:25;;;;;;;4.40;3.27;;;-2.50;98.20;;;-1.59;95.90;98717.47;4982633;28;20440;-79
2022/03/09 03:17:54;;;;;;;9.60;3.97;;;-2.50;98.40;;;-1.58;95.52;98713.16;4979627;28;20646;-79
2022/03/09 03:20:23;;;;;;;5.57;3.80;;;-2.40;98.30;;;-1.56;95.11;98716.44;4981952;28;20930;-79
2022/03/09 03:22:53;;;;;;;5.10;3.23;;;-2.50;98.00;;;-1.60;95.17;98713.25;4981503;28;20464;-79
2022/03/09 03:25:23;;;;;;;5.07;3.27;;;-2.40;98.20;;;-1.55;95.07;98713.78;4982359;28;20474;-79
2022/03/09 03:27:54;;;;;;;4.50;3.47;;;-2.40;98.20;;;-1.59;95.01;98712.34;4984296;28;20500;-79
2022/03/09 03:30:24;;;;;;;5.20;4.30;;;-2.60;98.00;;;-1.64;95.53;98708.41;4984217;28;20464;-79
2022/03/09 03:32:53;;;;;;;4.80;3.27;;;-2.60;98.30;;;-1.71;96.06;98707.97;4984371;28;20498;-79
2022/03/09 03:35:22;;;;;;;6.10;3.27;;;-2.70;98.50;;;-1.68;95.85;98700.09;4982444;28;20443;-79
2022/03/09 03:37:55;;;;;;;6.87;3.97;;;-2.70;98.60;;;-1.79;96.60;98699.94;4981312;28;20583;-79
2022/03/09 03:40:27;;;;;;;7.33;3.60;;;-2.90;98.30;;;-1.76;96.40;98701.47;4979397;28;20588;-79
2022/03/09 03:42:57;;;;;;;8.30;4.30;;;-2.80;98.70;;;-1.75;95.70;98691.13;4981560;28;21012;-79
2022/03/09 03:45:28;;;;;;;9.30;3.70;;;-2.60;98.40;;;-1.77;95.91;98687.81;4981510;28;20443;-79
2022/03/09 03:47:58;;;;;;;6.40;3.80;;;-2.70;98.40;;;-1.74;95.86;98691.97;4982330;28;20952;-79
2022/03/09 03:50:29;;;;;;;4.83;3.27;;;-2.60;98.20;;;-1.76;96.47;98689.47;4982800;28;20455;-79
2022/03/09 03:53:02;;;;;;;8.10;3.70;;;-2.70;98.50;;;-1.74;96.08;98691.97;4983343;28;20520;-79
2022/03/09 03:55:31;;;;;;;6.00;3.67;;;-2.70;98.20;;;-1.78;96.45;98699.03;4983478;28;20470;-80
2022/03/09 03:58:02;;;;;;;4.83;3.53;;;-2.80;98.30;;;-1.77;96.09;98692.97;4980351;28;20496;-80
2022/03/09 04:00:32;;;;;;;7.17;3.80;;;-2.70;98.50;;;-1.78;96.18;98699.03;4981900;28;20468;-80
2022/03/09 04:03:02;;;;;;;6.50;3.43;;;-2.70;98.40;;;-1.74;95.85;98697.91;4980689;28;20496;-80
2022/03/09 04:05:31;;;;;;;5.70;3.50;;;-2.60;98.30;;;-1.73;95.75;98694.41;4984480;28;20435;-80
2022/03/09 04:08:05;;;;;;;5.27;3.50;;;-2.60;98.20;;;-1.71;95.88;98691.78;4983197;28;20451;-80
2022/03/09 04:10:35;;;;;;;5.90;3.17;;;-2.70;98.10;;;-1.73;95.48;98686.72;4976034;28;20469;-80
2022/03/09 04:13:05;;;;;;;4.77;3.60;;;-2.70;98.00;;;-1.71;95.48;98690.03;4981473;28;20465;-80
2022/03/09 04:15:35;;;;;;;5.30;3.60;;;-2.60;98.10;;;-1.73;95.45;98689.28;4982001;28;20445;-80
2022/03/09 04:18:06;;;;;;;5.03;4.03;;;-2.60;98.00;;;-1.74;94.95;98699.66;4982460;28;20471;-80
2022/03/09 04:20:35;;;;;;;7.00;3.67;;;-2.60;98.00;;;-1.81;95.22;98704.34;4981705;28;20522;-80
2022/03/09 04:23:10;;;;;;;7.93;3.60;;;-2.70;98.10;;;-1.82;95.23;98700.13;4980178;28;20557;-80
2022/03/09 04:25:40;;;;;;;5.93;3.80;;;-2.70;98.10;;;-1.81;95.13;98696.66;4981685;28;21077;-80
2022/03/09 04:28:10;;;;;;;5.80;4.27;;;-2.70;98.00;;;-1.80;94.93;98703.41;4982017;28;20960;-79
2022/03/09 04:30:41;;;;;;;4.97;3.97;;;-2.70;98.10;;;-1.81;95.11;98695.81;4976712;28;20472;-80
2022/03/09 04:33:10;;;;;;;6.40;3.87;;;-2.70;98.00;;;-1.80;95.31;98700.84;4979202;28;20438;-79
2022/03/09 04:35:41;;;;;;;5.20;4.30;;;-2.70;98.00;;;-1.82;95.16;98706.97;4980251;28;20450;-80
2022/03/09 04:38:12;;;;;;;6.47;3.33;;;-2.80;98.10;;;-1.83;95.07;98702.75;4979540;28;20503;-80
2022/03/09 04:40:41;;;;;;;8.10;3.77;;;-2.70;98.20;;;-1.90;94.88;98716.88;4983566;28;20480;-80
2022/03/09 04:43:12;;;;;;;4.77;3.67;;;-2.80;98.10;;;-1.92;94.77;98709.28;4981092;28;20469;-80
2022/03/09 04:45:42;;;;;;;5.33;4.40;;;-2.80;98.00;;;-1.94;95.05;98708.53;4978051;28;20810;-80
2022/03/09 04:48:13;;;;;;;5.63;3.40;;;-2.80;98.00;;;-1.96;95.42;98712.13;4977842;28;20537;-80
2022/03/09 04:50:42;;;;;;;5.80;3.50;;;-2.90;98.10;;;-1.96;95.47;98712.13;4980638;28;20439;-80
2022/03/09 04:53:15;;;;;;;4.57;3.83;;;-2.90;98.00;;;-1.98;95.49;98719.91;4983337;28;20444;-80
2022/03/09 04:55:45;;;;;;;9.10;3.70;;;-2.90;98.10;;;-1.98;95.03;98719.91;4983376;28;20461;-80
2022/03/09 04:58:16;;;;;;;4.33;3.50;;;-2.80;98.00;;;-2.06;94.71;98717.81;4980995;28;20635;-80
2022/03/09 05:00:46;;;;;;;9.10;4.00;;;-2.80;97.90;;;-2.06;95.25;98722.94;4980862;28;20689;-80
2022/03/09 05:03:16;;;;;;;5.70;4.27;;;-3.00;97.90;;;-2.08;95.56;98724.75;4980649;28;20506;-80
2022/03/09 05:05:45;;;;;;;4.47;3.30;;;-3.00;98.10;;;-2.07;95.49;98720.44;4979351;28;20850;-79
2022/03/09 05:08:16;;;;;;;4.23;3.40;;;-3.00;98.30;;;-2.05;95.56;98723.75;4979446;28;20518;-80
2022/03/09 05:10:46;;;;;;;7.03;3.53;;;-3.00;98.20;;;-2.07;95.62;98730.69;4980791;28;20469;-80
2022/03/09 05:13:16;;;;;;;6.43;3.40;;;-2.90;98.20;;;-2.08;95.48;98729.84;4980006;28;20793;-80
2022/03/09 05:15:46;;;;;;;6.03;3.60;;;-3.00;98.20;;;-2.14;95.20;98734.53;4981121;28;20462;-80
2022/03/09 05:18:16;;;;;;;11.30;3.70;;;-2.90;98.00;;;-2.15;95.69;98733.69;4981410;28;20984;-80
2022/03/09 05:20:47;;;;;;;6.10;4.13;;;-3.00;98.10;;;-2.12;95.90;98735.28;4983233;28;20439;-80
2022/03/09 05:23:18;;;;;;;5.90;3.70;;;-3.00;98.00;;;-2.14;95.84;98740.47;4980697;28;20773;-80
2022/03/09 05:25:48;;;;;;;9.50;3.77;;;-3.00;98.10;;;-2.17;95.45;98732.97;4980383;28;20439;-80
2022/03/09 05:28:17;;;;;;;6.60;4.60;;;-3.00;98.10;;;-2.19;95.34;98734.00;4980371;28;21164;-80
2022/03/09 05:30:48;;;;;;;8.03;3.83;;;-3.00;98.00;;;-2.19;95.79;98731.44;4979250;28;20479;-80
2022/03/09 05:33:19;;;;;;;9.30;4.33;;;-3.10;98.30;;;-2.19;95.84;98731.44;4976710;28;20733;-79
2022/03/09 05:35:49;;;;;;;8.13;5.03;;;-3.10;97.90;;;-2.18;95.49;98733.06;4974264;28;20547;-80
2022/03/09 05:38:20;;;;;;;6.43;3.67;;;-3.10;97.90;;;-2.22;95.47;98731.63;4966956;28;20509;-80
2022/03/09 05:40:51;;;;;;;5.17;3.87;;;-3.10;98.00;;;-2.24;95.44;98726.56;4972616;28;20466;-79
2022/03/09 05:43:20;;;;;;;8.23;4.13;;;-3.00;98.10;;;-2.25;95.03;98727.47;4977719;28;20449;-80
2022/03/09 05:45:50;;;;;;;11.00;4.20;;;-3.10;98.00;;;-2.25;95.24;98734.34;4980026;28;20471;-79
2022/03/09 05:48:20;;;;;;;6.40;3.80;;;-3.10;97.90;;;-2.28;95.11;98731.97;4972429;28;20475;-80
2022/03/09 05:50:50;;;;;;;9.63;3.43;;;-3.10;97.90;;;-2.29;95.38;98732.88;4979057;28;20468;-80
2022/03/09 05:53:21;;;;;;;7.17;4.00;;;-3.20;98.00;;;-2.33;95.57;98737.38;4982013;28;20421;-79
2022/03/09 05:55:51;;;;;;;6.70;3.53;;;-3.20;98.00;;;-2.35;95.85;98740.91;4980943;28;20567;-80
2022/03/09 05:58:22;;;;;;;5.90;3.53;;;-3.20;98.30;;;-2.34;96.18;98755.38;4981070;28;20789;-80
2022/03/09 06:00:51;;;;;;;6.43;4.40;;;-3.20;98.10;;;-2.35;95.84;98751.97;4981174;28;20419;-80
2022/03/09 06:03:21;;;;;;;9.13;4.53;;;-3.20;97.90;;;-2.36;95.73;98741.84;4981474;28;20466;-80
2022/03/09 06:05:51;;;;;;;5.80;4.10;;;-3.30;98.00;;;-2.36;95.57;98749.53;4981272;28;20685;-80
2022/03/09 06:08:24;;;;;;;7.07;4.10;;;-3.30;97.90;;;-2.35;95.37;98758.84;4981606;28;20434;-80
2022/03/09 06:10:56;;;;;;;8.43;4.03;;;-3.30;98.00;;;-2.37;95.60;98758.09;4981370;28;20449;-79
2022/03/09 06:13:26;;;;;;;11.37;4.87;;;-3.30;98.20;;;-2.38;95.75;98761.56;4981203;28;20961;-80
2022/03/09 06:15:57;;;;;;;9.43;4.60;;;-3.30;98.20;;;-2.41;95.97;98756.63;4982526;28;20444;-79
2022/03/09 06:18:27;;;;;;;9.37;4.70;;;-3.30;98.20;;;-2.41;96.39;98756.63;4981027;28;21221;-80
2022/03/09 06:20:56;;;;;;;4.80;3.47;;;-3.30;98.30;;;-2.48;96.41;98763.03;4977460;28;20467;-80
2022/03/09 06:23:28;;;;;;;8.13;4.63;;;-3.40;98.30;;;-2.48;96.33;98760.47;4977062;28;20489;-77
2022/03/09 06:25:57;;;;;;;6.03;3.90;;;-3.30;98.30;;;-2.47;96.20;98773.19;4982778;28;21036;-80
2022/03/09 06:28:27;;;;;;;12.13;3.67;;;-3.30;98.50;;;-2.45;96.53;98767.97;4983278;28;20546;-76
2022/03/09 06:30:57;;;;;;;4.00;3.17;;;-3.30;98.50;;;-2.43;97.13;98773.84;4986050;28;20796;-75
2022/03/09 06:33:28;;;;;;;8.47;4.50;;;-3.30;98.60;;;-2.46;97.51;98774.00;4985682;28;20490;-75
2022/03/09 06:35:57;;;;;;;8.27;4.50;;;-3.40;98.40;;;-2.46;97.16;98784.25;4985082;28;20802;-75
2022/03/09 06:38:29;;;;;;;9.50;4.00;;;-3.30;98.50;;;-2.47;97.32;98782.59;4984343;28;20423;-76
2022/03/09 06:41:00;;;;;;;4.90;3.50;;;-3.30;98.80;;;-2.45;97.97;98786.72;4984439;28;20431;-75
2022/03/09 06:43:30;;;;;;;8.27;4.77;;;-3.30;99.00;;;-2.44;98.78;98782.41;4985196;28;20505;-75
2022/03/09 06:46:00;;;;;;;9.10;5.07;;;-3.30;99.00;;;-2.49;99.08;98787.78;4985402;28;20497;-75
2022/03/09 06:48:30;;;;;;;9.53;4.07;;;-3.30;98.60;;;-2.44;99.02;98795.22;4984684;28;20502;-75
2022/03/09 06:51:02;;;;;;;9.87;4.23;;;-3.30;98.80;;;-2.41;98.72;98800.16;4982945;28;20975;-75
2022/03/09 06:53:32;;;;;;;8.37;4.47;;;-3.30;98.80;;;-2.39;98.62;98806.84;4984549;28;20430;-75
2022/03/09 06:56:02;;;;;;;6.90;4.50;;;-3.30;98.80;;;-2.38;98.72;98802.53;4984678;28;20463;-75
2022/03/09 06:58:34;;;;;;;6.73;4.40;;;-3.20;98.90;;;-2.36;98.68;98806.66;4984063;28;20422;-75
2022/03/09 07:01:03;;;;;;;6.33;4.20;;;-3.10;99.00;;;-2.34;99.36;98799.72;4984164;28;20449;-75
2022/03/09 07:03:37;;;;;;;5.83;3.80;;;-3.20;98.90;;;-2.31;99.47;98808.97;4984370;28;20565;-75
2022/03/09 07:06:13;;;;;;;6.80;4.00;;;-3.20;99.00;;;-2.29;99.48;98804.59;4978835;28;20905;-75
2022/03/09 07:08:45;;;;;;;15.10;7.00;;;-3.10;99.10;;;-2.27;99.27;98810.44;4978739;28;21206;-80
2022/03/09 07:11:15;;;;;;;20.40;8.70;;;-3.00;99.00;;;-2.28;99.20;98814.72;4980872;28;20513;-75
2022/03/09 07:13:45;;;;;;;10.10;5.17;;;-3.00;98.90;;;-2.24;99.42;98805.13;4984107;28;20779;-75
2022/03/09 07:16:16;;;;;;;10.17;4.77;;;-2.90;99.10;;;-2.24;100.00;98805.97;4984557;28;21311;-75
2022/03/09 07:18:46;;;;;;;7.03;3.77;;;-3.00;99.10;;;-2.19;100.00;98803.97;4984344;28;20432;-75
2022/03/09 07:21:16;;;;;;;6.87;4.70;;;-3.00;99.30;;;-2.14;100.00;98801.94;4984161;28;20822;-75
2022/03/09 07:23:47;;;;;;;6.33;4.43;;;-3.00;99.50;;;-2.17;100.00;98807.25;4983120;28;20784;-76
2022/03/09 07:26:17;;;;;;;9.33;5.53;;;-3.00;99.50;;;-2.13;100.00;98808.72;4983588;28;20476;-75
2022/03/09 07:28:46;;;;;;;9.10;5.50;;;-2.90;99.40;;;-2.12;100.00;98817.25;4983186;28;20460;-75
2022/03/09 07:31:16;;;;;;;7.40;5.37;;;-2.90;99.60;;;-2.09;100.00;98822.19;4983710;28;20437;-75
2022/03/09 07:33:47;;;;;;;10.33;5.00;;;-2.90;99.70;;;-2.10;100.00;98817.97;4984057;28;20452;-76
2022/03/09 07:36:16;;;;;;;11.07;5.00;;;-2.90;99.70;;;-2.05;100.00;98818.53;4982980;28;20461;-75
2022/03/09 07:38:48;;;;;;;6.67;4.67;;;-2.80;99.60;;;-2.00;100.00;98823.38;4984377;28;20469;-75
2022/03/09 07:41:38;;;;;;;8.83;5.10;;;-2.80;99.60;;;-1.97;100.00;98823.19;4983267;28;20929;-75
2022/03/09 07:44:07;;;;;;;7.77;4.73;;;-2.80;99.90;;;-1.92;100.00;98823.75;4983890;28;20464;-75
2022/03/09 07:46:38;;;;;;;8.50;5.00;;;-2.70;99.90;;;-1.88;100.00;98828.63;4984716;28;20424;-75
2022/03/09 07:49:11;;;;;;;10.43;5.80;;;-2.70;99.90;;;-1.85;100.00;98830.16;4983317;28;20444;-75
2022/03/09 07:51:41;;;;;;;8.23;4.67;;;-2.70;99.90;;;-1.81;100.00;98826.53;4983876;28;20765;-75
2022/03/09 07:54:13;;;;;;;10.50;5.57;;;-2.70;99.90;;;-1.76;100.00;98838.13;4982965;28;20427;-75
2022/03/09 07:56:44;;;;;;;10.10;4.77;;;-2.60;99.90;;;-1.70;100.00;98832.63;4978456;28;20472;-75
2022/03/09 07:59:15;;;;;;;7.00;4.20;;;-2.50;99.90;;;-1.65;100.00;98835.75;4983352;28;20573;-75
2022/03/09 08:01:44;;;;;;;7.90;4.57;;;-2.50;99.90;;;-1.59;100.00;98832.81;4984289;28;20501;-75
2022/03/09 08:04:15;;;;;;;8.60;5.40;;;-2.40;99.90;;;-1.55;100.00;98841.97;4981841;28;20495;-75
2022/03/09 08:06:46;;;;;;;10.70;6.13;;;-2.40;99.90;;;-1.49;100.00;98843.34;4976679;28;20472;-81
2022/03/09 08:09:18;;;;;;;10.10;6.00;;;-2.30;99.90;;;-1.45;100.00;98842.25;4977387;28;20438;-75
2022/03/09 08:11:49;;;;;;;10.77;5.77;;;-2.20;99.90;;;-1.40;100.00;98845.38;4976290;28;20820;-76
2022/03/09 08:14:20;;;;;;;8.73;4.60;;;-2.10;99.90;;;-1.37;100.00;98844.34;4977828;28;20480;-75
2022/03/09 08:16:51;;;;;;;9.37;5.27;;;-2.20;99.90;;;-1.33;100.00;98843.25;4975209;28;20457;-76
2022/03/09 08:19:21;;;;;;;7.50;5.20;;;-2.10;99.90;;;-1.30;100.00;98843.91;4981770;28;20472;-75
2022/03/09 08:21:51;;;;;;;10.47;5.50;;;-2.10;99.90;;;-1.22;100.00;98846.00;4974341;28;20435;-75
2022/03/09 08:24:22;;;;;;;8.83;5.30;;;-2.10;99.90;;;-1.15;100.00;98844.69;4979298;28;21045;-75
2022/03/09 08:26:52;;;;;;;8.20;4.80;;;-2.00;99.90;;;-1.10;100.00;98846.06;4980228;28;20469;-75
2022/03/09 08:29:22;;;;;;;10.80;6.00;;;-1.90;99.90;;;-1.03;100.00;98837.06;4977015;28;20986;-75
2022/03/09 08:31:52;;;;;;;12.93;5.77;;;-1.80;99.90;;;-0.97;100.00;98842.75;4974328;28;20470;-76
2022/03/09 08:34:21;;;;;;;12.93;6.27;;;-1.80;99.90;;;-0.91;100.00;98838.06;4976266;28;20473;-75
2022/03/09 08:36:51;;;;;;;16.40;5.10;;;-1.70;99.90;;;-0.84;100.00;98836.75;4978097;28;20526;-75
2022/03/09 08:39:22;;;;;;;10.90;6.20;;;-1.60;99.90;;;-0.77;100.00;98840.56;4977567;28;20565;-75
2022/03/09 08:41:52;;;;;;;9.33;6.20;;;-1.50;99.90;;;-0.70;100.00;98831.56;4975283;28;20476;-76
2022/03/09 08:44:41;;;;;;;7.10;4.80;;;-1.50;99.90;;;-0.62;100.00;98841.31;4975377;28;26297;-75
2022/03/09 08:47:12;;;;;;;8.70;5.30;;;-1.40;99.90;;;-0.58;100.00;98846.19;4974358;28;20456;-76
2022/03/09 08:49:42;;;;;;;12.20;5.67;;;-1.30;99.90;;;-0.51;100.00;98844.03;4974946;28;20476;-75
2022/03/09 08:52:13;;;;;;;12.13;4.80;;;-1.20;99.90;;;-0.45;100.00;98847.97;4976004;28;20517;-75
2022/03/09 08:54:45;;;;;;;8.10;5.20;;;-1.20;99.90;;;-0.40;100.00;98838.22;4977792;28;20476;-75
2022/03/09 08:57:15;;;;;;;8.90;5.13;;;-1.20;99.90;;;-0.34;100.00;98840.38;4976530;28;21038;-75
2022/03/09 08:59:45;;;;;;;10.80;5.70;;;-1.10;99.90;;;-0.28;100.00;98837.44;4978563;28;20468;-75
2022/03/09 09:02:15;;;;;;;9.10;5.23;;;-1.10;99.90;;;-0.22;100.00;98843.00;4977294;28;20561;-75
2022/03/09 09:04:46;;;;;;;8.07;5.47;;;-1.00;99.90;;;-0.13;100.00;98839.81;4978418;28;20452;-75
2022/03/09 09:07:16;;;;;;;10.47;5.90;;;-0.90;99.90;;;-0.06;100.00;98840.22;4980609;28;20955;-75
2022/03/09 09:09:48;;;;;;;10.43;6.10;;;-0.80;99.90;;;0.00;100.00;98827.00;4975535;28;20837;-75
2022/03/09 09:12:19;;;;;;;10.47;6.50;;;-0.70;99.90;;;0.10;100.00;98840.06;4981580;28;20471;-75
2022/03/09 09:14:49;;;;;;;8.87;5.00;;;-0.70;99.90;;;0.16;100.00;98835.31;4979098;28;20579;-75
2022/03/09 09:17:19;;;;;;;11.57;5.00;;;-0.60;99.90;;;0.25;100.00;98832.13;4975718;28;20475;-75
2022/03/09 09:20:07;;;;;;;10.70;5.80;;;-0.50;99.90;;;0.34;100.00;98834.09;4979840;28;20471;-75
2022/03/09 09:22:42;;;;;;;12.70;5.73;;;-0.40;99.90;;;0.43;100.00;98836.03;4979240;28;20495;-75
2022/03/09 09:25:34;;;;;;;7.63;5.20;;;-0.30;99.90;;;0.54;100.00;98837.03;4978440;28;20866;-79
2022/03/09 09:28:05;;;;;;;18.60;9.47;;;-0.10;99.90;;;0.62;100.00;98839.94;4978582;28;20872;-76
2022/03/09 09:30:36;;;;;;;12.63;7.00;;;-0.10;99.90;;;0.69;100.00;98836.00;4977603;28;20472;-75
2022/03/09 09:33:06;;;;;;;11.03;5.30;;;0.00;99.90;;;0.79;100.00;98834.44;4979003;28;20471;-75
2022/03/09 09:35:36;;;;;;;8.10;4.77;;;0.10;99.70;;;0.88;100.00;98831.22;4978000;28;20475;-75
2022/03/09 09:38:09;;;;;;;8.80;4.73;;;0.30;99.50;;;0.94;100.00;98830.78;4976395;28;20795;-75
2022/03/09 09:40:45;;;;;;;7.97;5.20;;;0.30;99.10;;;1.01;100.00;98826.84;4976941;28;20498;-74
2022/03/09 09:43:17;;;;;;;6.77;4.43;;;0.40;99.40;;;1.09;100.00;98829.72;4977961;28;20472;-75
2022/03/09 09:45:46;;;;;;;6.23;4.23;;;0.50;99.30;;;1.15;98.56;98828.44;4978099;28;21108;-75
2022/03/09 09:48:17;;;;;;;8.50;4.90;;;0.50;98.50;;;1.25;97.04;98825.09;4977028;28;20497;-75
2022/03/09 09:50:54;;;;;;;7.27;4.33;;;0.60;98.30;;;1.34;96.62;98824.47;4976374;28;20566;-76
2022/03/09 09:53:25;;;;;;;11.43;5.20;;;0.70;98.00;;;1.42;95.66;98817.00;4974882;28;20467;-75
2022/03/09 09:56:00;;;;;;;7.43;4.53;;;0.90;98.00;;;1.52;94.80;98820.56;4979022;28;20668;-75
2022/03/09 09:58:31;;;;;;;9.10;5.03;;;0.90;97.00;;;1.61;94.53;98819.06;4977307;28;20990;-82
2022/03/09 10:01:01;;;;;;;105.33;41.80;;;1.00;97.40;;;1.69;94.21;98824.50;4977833;28;20586;-75
2022/03/09 10:03:30;;;;;;;12.30;6.80;;;1.10;97.60;;;1.83;92.73;98810.59;4983912;28;21138;-75
2022/03/09 10:06:01;;;;;;;13.53;6.07;;;1.30;97.20;;;1.91;89.66;98814.22;4981890;28;20484;-75
2022/03/09 10:08:39;;;;;;;9.73;5.17;;;1.40;96.80;;;1.98;89.68;98815.41;4982625;28;20471;-76
2022/03/09 10:11:12;;;;;;;7.47;5.27;;;1.40;96.60;;;2.07;88.50;98803.59;4981874;28;20468;-76
2022/03/09 10:13:43;;;;;;;9.37;4.93;;;1.50;96.50;;;2.15;87.05;98803.84;4982208;28;20463;-75
2022/03/09 10:16:20;;;;;;;8.33;5.60;;;1.60;96.50;;;2.26;85.06;98805.59;4980967;28;20811;-75
2022/03/09 10:18:54;;;;;;;11.70;5.57;;;1.80;95.80;;;2.35;83.07;98797.19;4983167;28;20554;-75
2022/03/09 10:21:28;;;;;;;8.80;5.40;;;1.90;95.70;;;2.45;83.32;98804.09;4982818;28;21067;-75
2022/03/09 10:24:06;;;;;;;10.10;5.83;;;1.90;95.10;;;2.57;82.68;98811.84;4981693;28;20474;-76
2022/03/09 10:26:51;;;;;;;10.43;5.47;;;2.10;95.30;;;2.68;81.77;98814.41;4981313;28;20470;-75
2022/03/09 10:29:21;;;;;;;9.03;5.10;;;2.10;95.20;;;2.74;80.85;98812.16;4981168;28;20600;-75
2022/03/09 10:31:59;;;;;;;8.40;5.17;;;2.20;95.30;;;2.82;80.73;98806.41;4974636;28;20457;-75
2022/03/09 10:34:29;;;;;;;10.13;5.43;;;2.30;94.80;;;2.90;80.28;98815.22;4981450;28;20483;-75
2022/03/09 10:37:02;;;;;;;7.43;5.17;;;2.40;95.20;;;2.98;79.89;98801.72;4977001;28;20457;-75
2022/03/09 10:39:36;;;;;;;10.97;6.20;;;2.50;95.10;;;3.06;79.02;98804.47;4982307;28;20819;-75